TNCM

Details ICAO TNCM (SXM)
Name Princess Juliana Intl
Region Caribbean Netherlands, Aruba, Curaçao, Sint Maarten
Timezone Unknown
Plans Departing 7666
Arriving 11023
Stats Elevation 14 ft / 4 m (AMSL)
Location 18.040900° -63.108900°
Runways 1
Magnetic Variation 14.421° W
Sunrise 2021-06-19 09:38:48 UTC / 2021-06-19 09:38:48 Local
Sunset 2021-06-19 22:51:26 UTC / 2021-06-19 22:51:26 Local
Advertisement - Login to hide

Runways

ID Width Length Bearing (true/mag) Surface Threshold Overrun Markings Lighting
10 148 ft / 45 m 7,553 ft / 2,302 m 81.44° / 95.86° ASPHALT 331 ft / 101 m 164 ft / 50 m PREC-APP EDGE THRESHOLD REIL-OMNI
28 148 ft / 45 m 7,553 ft / 2,302 m 261.45° / 275.87° ASPHALT 0 ft / 0 m 200 ft / 61 m APP EDGE THRESHOLD

Map

Weather


0- 5 10 15 20 25 30 35+ Temperature / °C

Clouds and Precipitation
Forecast for 2021-06-19 06:00 UTC. Updated 3 hours ago

Ground ~20,000 ft ~40,000 ft Winds

METAR

TNCM 190600Z 07013KT 9999 FEW018 27/23 Q1018

TAF

TNCM 190539Z 1906/2006 07012KT P6SM VCSH SCT018

Frequencies

Recorded 127.65 MHz ATIS
Approach 128.95 MHz Juliana Approach
Tower 118.70 MHz Juliana Tower
Departure 128.95 MHz Juliana Departure
Warning: Do not use this data for real-world aviation or navigation. No guarantee of current accuracy is given.